logo
Rechercher aéroport 
image banner adimage banner adimage banner ad
image banner ad

YPVID - Presevation Island

Situé à Cape Barren Island, Australia

ICAO - , IATA -

Données fournies par Airmate  

Information générale

Coordonnées: S40°28'36" E148°4'7"
Élévation : 25 feet MSL.
Variation magnétique : 14° East
Voir autres Aéroports à Tasmania

Données opérationnelles

Special qualification required
Heure actuelle UTC:
Heure actuelle locale:
Météo à : - ( 0 km )
METAR: ZMCK 220830Z VRB02MPS 9999 FEW030CB BKN033 14/08 Q1016 NOSIG RMK QFE646.4 71 MOP
Voir NOTAMs / SUP AIP / TFR affectant cet aéroport [VIEW]
Fréquences de communication: [VIEW]

Pistes:

Identifiant RWYQFULongueur (ft)Largeur (ft)SurfaceLDA (ft)
30314°143334GRAS
12134°143334GRAS
0568°93041GRAS
23248°93041GRAS

Coordonnées de l'aéroport

Adresse: Cape Barren Island Australia

Vue satellite de YPVID